Latest Weather Observations for Busselton Airport

IDW60801

Issued at 11:05 pm WST Tuesday 21 October 2014 (issued every 30 minutes, with the page automatically refreshed every 10 minutes)

About weather observations | Map of weather stations | Latest weather observations for WA | Other Formats
Station Details ID: 009603 Name: BUSSELTON AERO Lat: -33.69 Lon: 115.40 Height: 16.3 m
Data from the previous 72 hours. | See also: Recent months at Busselton Airport
Date/Time
WST
Temp
°C
App
Temp
°C
Dew
Point
Rel
Hum
%
Delta-T
°C
Wind Press
QNH
hPa
Press
MSL
hPa
Rain
since 9 am
mm
Dir
 
Spd
km/h
Gust
km/h
Spd
kts
Gust
kts
21/11:00pm 14.8 10.8 9.0 68 3.0 ESE 20 30 11 16 1018.7 1018.7 0.2
21/10:30pm 14.0 11.0 9.3 73 2.4 SE 15 19 8 10 1019.1 1019.1 0.2
21/10:00pm 14.1 11.7 8.7 70 2.7 SE 11 17 6 9 1019.6 1019.6 0.2
21/09:30pm 14.6 11.9 9.0 69 2.9 SSE 13 17 7 9 1019.8 1019.8 0.2
21/09:00pm 14.6 11.0 8.3 66 3.2 SSE 17 22 9 12 1020.2 1020.2 0.2
21/08:30pm 14.6 10.9 7.9 64 3.3 S 17 20 9 11 1020.6 1020.6 0.2
21/08:00pm 14.9 11.6 7.9 63 3.5 S 15 19 8 10 1020.7 1020.7 0.2
21/07:30pm 15.2 12.0 8.5 64 3.4 S 15 17 8 9 1020.4 1020.4 0.2
21/07:00pm 16.5 13.1 9.2 62 3.8 S 17 22 9 12 1020.2 1020.2 0.2
21/06:30pm 17.9 15.0 9.6 58 4.4 S 15 22 8 12 1020.1 1020.1 0.2
21/06:00pm 20.0 18.3 9.9 52 5.4 WSW 9 11 5 6 1020.1 1020.1 0.2
21/05:30pm 20.7 19.0 9.7 49 5.9 NW 9 11 5 6 1019.8 1019.8 0.2
21/05:00pm 21.1 18.8 10.3 50 5.8 NW 13 15 7 8 1019.8 1019.8 0.2
21/04:30pm 21.2 18.4 10.1 49 6.0 NNW 15 19 8 10 1019.8 1019.8 0.2
21/04:00pm 21.2 17.9 9.5 47 6.2 NW 17 22 9 12 1019.9 1019.9 0.2
21/03:30pm 21.9 18.7 10.1 47 6.4 NW 17 22 9 12 1020.2 1020.2 0.2
21/03:00pm 22.3 20.3 10.1 46 6.6 NW 11 19 6 10 1020.4 1020.4 0.2
21/02:30pm 23.1 20.3 6.8 35 8.4 E 11 19 6 10 1020.5 1020.5 0.2
21/02:00pm 22.9 20.4 6.7 35 8.3 S 9 17 5 9 1020.8 1020.8 0.2
21/01:30pm 21.9 19.3 6.2 36 7.9 E 9 17 5 9 1021.1 1021.1 0.2
21/01:00pm 21.5 18.7 5.0 34 8.1 ESE 9 20 5 11 1021.5 1021.5 0.2
21/12:30pm 21.0 17.7 6.2 38 7.4 S 13 20 7 11 1022.0 1022.0 0.2
21/12:00pm 20.6 17.4 6.9 41 6.9 SE 13 20 7 11 1022.1 1022.1 0.0
21/11:30am 20.2 16.6 6.9 42 6.7 ESE 15 20 8 11 1022.3 1022.3 0.0
21/11:00am 19.6 16.4 6.7 43 6.5 SE 13 19 7 10 1022.5 1022.5 0.0
21/10:30am 19.4 16.7 7.5 46 6.1 ESE 11 22 6 12 1022.7 1022.7 0.0
21/10:00am 17.8 15.1 5.7 45 5.9 SSE 9 17 5 9 1022.9 1022.9 0.0
21/09:30am 17.5 14.8 7.3 51 5.1 ESE 11 19 6 10 1023.0 1023.0 0.0
21/09:00am 17.1 14.9 8.0 55 4.6 ESE 9 15 5 8 1022.9 1022.9 0.0
21/08:30am 16.0 13.6 8.8 62 3.7 E 11 13 6 7 1023.0 1023.0 0.0
21/08:00am 14.1 13.0 10.6 79 1.8 ESE 7 11 4 6 1023.1 1023.1 0.0
21/07:30am 11.6 10.5 10.7 94 0.5 ESE 7 9 4 5 1022.7 1022.7 0.0
21/07:00am 9.1 7.7 8.7 97 0.2 E 6 7 3 4 1022.5 1022.5 0.0
21/06:30am 6.8 4.6 6.4 97 0.2 ENE 7 7 4 4 1022.2 1022.2 0.0
21/06:00am 4.7 2.1 4.0 95 0.3 ESE 7 9 4 5 1022.1 1022.1 0.0
21/05:30am 4.2 1.5 3.5 95 0.3 SE 7 7 4 4 1022.1 1022.1 0.0
21/05:00am 3.9 1.1 3.1 94 0.3 E 7 9 4 5 1021.7 1021.7 0.0
21/04:30am 4.3 1.6 3.5 94 0.3 E 7 7 4 4 1021.4 1021.4 0.0
21/04:00am 4.7 2.2 3.8 94 0.4 SE 6 7 3 4 1021.2 1021.2 0.0
21/03:30am 4.9 2.5 4.1 95 0.3 SE 6 7 3 4 1021.1 1021.1 0.0
21/03:00am 5.1 2.7 4.2 94 0.4 ESE 6 6 3 3 1020.9 1020.9 0.0
21/02:30am 5.2 3.2 4.3 94 0.4 ESE 4 6 2 3 1020.6 1020.6 0.0
21/02:00am 5.3 2.9 4.4 94 0.4 ESE 6 7 3 4 1020.5 1020.5 0.0
21/01:30am 5.8 3.5 4.9 94 0.4 SSE 6 7 3 4 1020.5 1020.5 0.0
21/01:00am 6.0 3.5 5.0 93 0.4 SSW 7 9 4 5 1020.3 1020.3 0.0
21/12:30am 7.0 6.1 6.0 93 0.4 CALM 0 4 0 2 1020.4 1020.4 0.0
21/12:00am 7.7 6.6 6.7 93 0.5 S 2 6 1 3 1020.4 1020.4 0.0
 
Date/Time
WST
Temp
°C
App
Temp
°C
Dew
Point
Rel
Hum
%
Delta-T
°C
Wind Press
QNH
hPa
Press
MSL
hPa
Rain
since 9 am
mm
Dir
 
Spd
km/h
Gust
km/h
Spd
kts
Gust
kts
20/11:30pm 7.3 5.2 5.9 91 0.6 SSW 6 6 3 3 1020.5 1020.5 0.0
20/11:00pm 8.4 6.4 7.0 91 0.6 SSW 7 9 4 5 1020.7 1020.7 0.0
20/10:30pm 8.4 5.9 6.4 87 0.9 SW 9 11 5 6 1020.7 1020.7 0.0
20/10:00pm 9.5 7.7 7.1 85 1.1 SSW 6 7 3 4 1020.7 1020.7 0.0
20/09:30pm 10.7 9.1 8.2 84 1.2 SSW 6 6 3 3 1020.8 1020.8 0.0
20/09:00pm 11.0 9.4 8.1 82 1.4 SSW 6 7 3 4 1020.9 1020.9 0.0
20/08:30pm 12.3 10.4 9.0 80 1.7 SSW 9 11 5 6 1021.1 1021.1 0.0
20/08:00pm 11.8 9.7 8.1 78 1.8 S 9 11 5 6 1020.6 1020.6 0.0
20/07:30pm 12.5 10.5 8.6 77 1.9 SSW 9 11 5 6 1020.2 1020.2 0.0
20/07:00pm 13.4 11.4 8.5 72 2.4 SW 9 11 5 6 1020.1 1020.1 0.0
20/06:30pm 14.8 12.6 9.2 69 2.9 SW 11 13 6 7 1019.9 1019.9 0.0
20/06:00pm 15.7 13.5 9.4 66 3.2 SSW 11 15 6 8 1019.4 1019.4 0.0
20/05:30pm 16.9 13.4 8.9 59 4.1 SW 17 20 9 11 1019.2 1019.2 0.0
20/05:00pm 18.2 13.8 9.1 55 4.7 SW 22 28 12 15 1018.9 1018.9 0.0
20/04:30pm 19.3 15.5 11.1 59 4.5 SSW 22 30 12 16 1018.9 1018.9 0.0
20/04:00pm 18.6 13.9 10.7 60 4.3 SSW 26 32 14 17 1018.7 1018.7 0.0
20/03:30pm 19.2 14.9 10.8 58 4.6 WSW 24 30 13 16 1018.5 1018.5 0.0
20/03:00pm 17.9 13.7 11.0 64 3.7 SW 24 32 13 17 1018.2 1018.2 0.0
20/02:30pm 17.5 13.9 13.1 75 2.5 SSW 24 33 13 18 1018.1 1018.1 0.0
20/02:00pm 18.6 15.2 11.2 62 4.0 SW 20 28 11 15 1017.7 1017.7 0.0
20/01:30pm 19.0 15.6 11.1 60 4.3 WSW 20 28 11 15 1017.4 1017.4 0.0
20/01:00pm 19.3 16.0 11.6 61 4.2 SW 20 28 11 15 1017.5 1017.5 0.0
20/12:30pm 18.3 14.5 11.2 63 3.9 WSW 22 33 12 18 1017.5 1017.5 0.0
20/12:00pm 17.6 13.8 11.2 66 3.5 SW 22 30 12 16 1017.5 1017.5 0.0
20/11:30am 19.0 15.0 10.6 58 4.5 SW 22 32 12 17 1017.3 1017.3 0.0
20/11:00am 19.1 15.5 10.7 58 4.5 SW 20 28 11 15 1017.3 1017.3 0.0
20/10:30am 17.5 12.9 11.1 66 3.5 SSW 26 30 14 16 1017.4 1017.4 0.0
20/10:00am 18.4 14.5 12.2 67 3.4 S 24 37 13 20 1017.3 1017.3 0.0
20/09:30am 17.5 13.7 11.3 67 3.4 SSW 22 30 12 16 1017.5 1017.5 0.0
20/09:00am 17.1 13.7 12.4 74 2.6 SSW 22 30 12 16 1017.5 1017.5 0.0
20/08:30am 15.6 11.7 12.2 80 1.9 SSW 24 33 13 18 1017.5 1017.5 0.0
20/08:00am 14.6 10.7 12.0 84 1.4 SSW 24 33 13 18 1017.5 1017.5 0.0
20/07:30am 14.4 11.5 12.8 90 0.9 SSW 20 24 11 13 1017.2 1017.2 0.0
20/07:00am 13.8 11.1 13.0 95 0.4 SSW 19 26 10 14 1016.7 1016.7 0.0
20/06:30am 13.0 10.8 12.2 95 0.4 SW 15 19 8 10 1016.5 1016.5 0.0
20/06:00am 12.6 9.9 11.7 94 0.5 SW 17 20 9 11 1016.4 1016.4 0.0
20/05:30am 11.3 9.3 10.1 92 0.6 SW 11 13 6 7 1015.9 1015.9 0.0
20/05:00am 11.6 10.0 10.2 91 0.7 WSW 9 13 5 7 1015.7 1015.7 0.0
20/04:30am 11.5 9.8 10.0 90 0.8 SW 9 13 5 7 1015.3 1015.3 0.0
20/04:00am 11.7 10.0 10.0 89 0.9 WSW 9 13 5 7 1015.5 1015.5 0.0
20/03:30am 12.1 9.0 10.2 88 1.0 SW 17 19 9 10 1015.5 1015.5 0.0
20/03:00am 12.4 10.5 10.6 89 0.9 WSW 11 15 6 8 1015.7 1015.7 0.0
20/02:30am 11.7 9.2 9.8 88 1.0 SW 13 15 7 8 1015.7 1015.7 0.0
20/02:00am 12.1 9.0 10.4 89 0.9 SSW 17 22 9 12 1015.8 1015.8 0.0
20/01:30am 11.8 8.6 9.9 88 1.0 SSW 17 19 9 10 1015.9 1015.9 0.0
20/01:00am 11.9 8.7 10.0 88 1.0 SSW 17 19 9 10 1016.3 1016.3 0.0
20/12:30am 11.3 7.9 9.1 86 1.1 SSW 17 20 9 11 1016.6 1016.6 0.0
20/12:00am 11.1 8.3 8.5 84 1.3 SW 13 17 7 9 1016.8 1016.8 0.0
 
Date/Time
WST
Temp
°C
App
Temp
°C
Dew
Point
Rel
Hum
%
Delta-T
°C
Wind Press
QNH
hPa
Press
MSL
hPa
Rain
since 9 am
mm
Dir
 
Spd
km/h
Gust
km/h
Spd
kts
Gust
kts
19/11:30pm 11.8 8.3 8.8 82 1.5 SSW 17 20 9 11 1016.9 1016.9 0.0
19/11:00pm 12.2 8.8 9.0 81 1.6 SSW 17 22 9 12 1017.3 1017.3 0.0
19/10:30pm 11.7 8.1 8.4 80 1.6 SSW 17 19 9 10 1017.4 1017.4 0.0
19/10:00pm 12.0 9.1 8.1 77 1.9 S 13 17 7 9 1017.4 1017.4 0.0
19/09:30pm 12.7 9.1 8.4 75 2.1 S 17 20 9 11 1017.6 1017.6 0.0
19/09:00pm 12.8 9.2 8.3 74 2.2 SSW 17 24 9 13 1017.7 1017.7 0.0
19/08:30pm 13.1 8.9 8.2 72 2.4 S 20 26 11 14 1017.5 1017.5 0.0
19/08:00pm 13.3 9.3 8.2 71 2.5 S 19 28 10 15 1017.4 1017.4 0.0
19/07:30pm 13.4 9.2 8.3 71 2.5 S 20 26 11 14 1017.3 1017.3 0.0
19/07:00pm 13.8 8.8 8.1 68 2.8 S 24 32 13 17 1017.1 1017.1 0.0
19/06:30pm 14.5 9.8 7.8 64 3.3 SSE 22 30 12 16 1016.7 1016.7 0.0
19/06:00pm 15.5 10.4 7.8 60 3.8 SSE 24 35 13 19 1016.7 1016.7 0.0
19/05:30pm 16.4 10.2 7.9 57 4.3 SE 30 39 16 21 1016.6 1016.6 0.0
19/05:00pm 16.4 10.3 8.1 58 4.2 SSE 30 44 16 24 1016.8 1016.8 0.0
19/04:30pm 17.1 12.6 8.6 57 4.4 SSE 22 30 12 16 1016.9 1016.9 0.0
19/04:00pm 16.8 11.8 8.0 56 4.4 SSE 24 30 13 16 1016.8 1016.8 0.0
19/03:30pm 17.2 12.3 8.6 57 4.4 SSE 24 35 13 19 1016.7 1016.7 0.0
19/03:00pm 17.5 13.3 8.4 55 4.7 SSE 20 28 11 15 1016.6 1016.6 0.0
19/02:30pm 16.8 12.0 8.8 59 4.1 SE 24 33 13 18 1016.5 1016.5 0.0
19/02:00pm 16.2 11.4 8.9 62 3.7 SE 24 35 13 19 1016.7 1016.7 0.0
19/01:34pm 15.9 10.3 8.9 63 3.6 SE 28 46 15 25 1017.2 1017.2 0.0
19/01:30pm 15.6 10.0 8.9 64 3.4 SE 28 37 15 20 1017.2 1017.2 0.0
19/01:00pm 15.7 10.7 9.6 67 3.2 SE 26 43 14 23 1017.3 1017.3 0.0
19/12:30pm 16.2 9.6 7.7 57 4.3 SE 32 41 17 22 1017.4 1017.4 0.0
19/12:00pm 16.7 10.0 7.4 54 4.6 SE 32 41 17 22 1017.5 1017.5 0.0
19/11:30am 16.6 11.1 7.5 55 4.6 SE 26 33 14 18 1017.6 1017.6 0.0
19/11:00am 16.3 9.5 7.8 57 4.3 SE 33 41 18 22 1017.7 1017.7 0.0
19/10:30am 16.3 10.5 8.1 58 4.1 SE 28 35 15 19 1017.9 1017.9 0.0
19/10:00am 16.4 10.1 7.6 56 4.4 SE 30 44 16 24 1018.0 1018.0 0.0
19/09:30am 16.1 9.8 7.6 57 4.2 SE 30 41 16 22 1018.2 1018.2 0.0
19/09:00am 16.0 9.5 8.0 59 4.0 SE 32 43 17 23 1018.2 1018.2 0.0
19/08:30am 14.4 8.9 7.5 63 3.4 SE 26 39 14 21 1018.6 1018.6 0.0
19/08:00am 13.8 9.4 7.6 66 3.0 SE 20 30 11 16 1018.8 1018.8 0.0
19/07:30am 13.5 9.1 7.5 67 2.9 SE 20 28 11 15 1018.7 1018.7 0.0
19/07:00am 13.2 8.9 7.9 70 2.6 SSE 20 32 11 17 1018.5 1018.5 0.0
19/06:30am 12.9 8.6 7.8 71 2.5 SSE 20 28 11 15 1018.7 1018.7 0.0
19/06:00am 12.5 8.2 8.0 74 2.2 SE 20 24 11 13 1018.6 1018.6 0.0
19/05:30am 11.8 8.0 7.5 75 2.1 SSE 17 24 9 13 1018.2 1018.2 0.0
19/05:00am 11.7 7.5 7.6 76 2.0 S 19 22 10 12 1017.8 1017.8 0.0
19/04:30am 12.1 7.7 7.4 73 2.3 SSE 20 30 11 16 1017.7 1017.7 0.0
19/04:00am 12.3 7.6 7.6 73 2.3 SSE 22 30 12 16 1018.0 1018.0 0.0
19/03:30am 11.9 7.5 7.6 75 2.1 SSE 20 28 11 15 1018.1 1018.1 0.0
19/03:00am 12.1 7.7 7.6 74 2.2 SSE 20 24 11 13 1018.0 1018.0 0.0
19/02:30am 12.2 8.3 6.9 70 2.5 SSE 17 22 9 12 1018.1 1018.1 0.0
19/02:00am 12.4 8.1 6.9 69 2.6 SSE 19 28 10 15 1018.3 1018.3 0.0
19/01:30am 12.7 8.2 7.0 68 2.7 SE 20 28 11 15 1018.2 1018.2 0.0
19/01:00am 13.0 8.6 7.3 68 2.8 SE 20 28 11 15 1018.5 1018.5 0.0
19/12:30am 12.9 8.6 7.2 68 2.8 SSE 19 28 10 15 1018.7 1018.7 0.0
19/12:00am 13.1 8.3 7.2 67 2.9 SE 22 32 12 17 1018.7 1018.7 0.0
 
Date/Time
WST
Temp
°C
App
Temp
°C
Dew
Point
Rel
Hum
%
Delta-T
°C
Wind Press
QNH
hPa
Press
MSL
hPa
Rain
since 9 am
mm
Dir
 
Spd
km/h
Gust
km/h
Spd
kts
Gust
kts
18/11:30pm 13.5 8.3 7.3 66 3.0 SE 24 35 13 19 1018.8 1018.8 0.0

Other Formats:

Comma delimited format used in spreadsheet applications
http://www.bom.gov.au/fwo/IDW60801/IDW60801.95611.axf

JavaScript Object Notation format (JSON) in row-major order
http://www.bom.gov.au/fwo/IDW60801/IDW60801.95611.json